Time;durP1;ratioP1;P1;durP2;ratioP2;P2;SDS_P1;SDS_P2;PMS_P1;PMS_P2;Temp;Humidity;BMP_temperature;BMP_pressure;BME280_temperature;BME280_humidity;BME280_pressure;Samples;Min_cycle;Max_cycle;Signal;HPM_P1;HPM_P2
2021/11/18 00:00:12;;;;;;;4.55;1.08;;;;;;;;;;5045838;28;20056;-55
2021/11/18 00:02:38;;;;;;;4.82;1.00;;;;;;;;;;5042514;28;20033;-57
2021/11/18 00:05:05;;;;;;;3.45;1.10;;;;;;;;;;5043172;28;20099;-57
2021/11/18 00:07:31;;;;;;;8.63;0.95;;;;;;;;;;5044676;28;20037;-57
2021/11/18 00:09:57;;;;;;;2.38;0.73;;;;;;;;;;5040467;28;20033;-56
2021/11/18 00:12:25;;;;;;;4.32;0.90;;;;;;;;;;5041083;28;20254;-55
2021/11/18 00:14:51;;;;;;;4.35;1.20;;;;;;;;;;5047628;28;20048;-59
2021/11/18 00:17:17;;;;;;;2.45;0.80;;;;;;;;;;5049408;28;20041;-54
2021/11/18 00:19:43;;;;;;;3.38;0.85;;;;;;;;;;5047744;28;20048;-54
2021/11/18 00:22:09;;;;;;;3.03;0.88;;;;;;;;;;5047496;28;20051;-56
2021/11/18 00:24:35;;;;;;;2.58;0.95;;;;;;;;;;5045483;28;20041;-53
2021/11/18 00:27:01;;;;;;;4.63;1.17;;;;;;;;;;5045950;28;20059;-54
2021/11/18 00:29:27;;;;;;;3.50;0.85;;;;;;;;;;5046727;28;20127;-54
2021/11/18 00:31:53;;;;;;;6.38;1.05;;;;;;;;;;5048245;28;20033;-54
2021/11/18 00:34:19;;;;;;;2.80;0.85;;;;;;;;;;5027078;28;20481;-53
2021/11/18 00:36:45;;;;;;;7.93;1.10;;;;;;;;;;5045688;28;20052;-57
2021/11/18 00:39:12;;;;;;;2.78;1.02;;;;;;;;;;5046090;28;20033;-55
2021/11/18 00:41:38;;;;;;;3.40;0.80;;;;;;;;;;5045976;28;20119;-58
2021/11/18 00:44:05;;;;;;;4.15;0.95;;;;;;;;;;5045301;28;20040;-56
2021/11/18 00:46:33;;;;;;;2.65;1.00;;;;;;;;;;5044961;28;20045;-57
2021/11/18 00:48:59;;;;;;;3.30;1.08;;;;;;;;;;5048082;28;20037;-56
2021/11/18 00:51:26;;;;;;;2.65;1.02;;;;;;;;;;5046980;28;20036;-56
2021/11/18 00:53:56;;;;;;;3.08;0.75;;;;;;;;;;5045737;28;20047;-54
2021/11/18 00:56:23;;;;;;;6.40;0.95;;;;;;;;;;5043406;28;20572;-57
2021/11/18 00:58:50;;;;;;;3.28;0.80;;;;;;;;;;5046593;28;20057;-55
2021/11/18 01:01:16;;;;;;;4.68;1.00;;;;;;;;;;5043310;28;20075;-56
2021/11/18 01:03:42;;;;;;;5.38;1.00;;;;;;;;;;5026856;28;20464;-54
2021/11/18 01:06:08;;;;;;;2.08;0.70;;;;;;;;;;5027487;28;20063;-55
2021/11/18 01:08:34;;;;;;;4.28;0.82;;;;;;;;;;5045734;28;20755;-57
2021/11/18 01:11:02;;;;;;;3.20;0.82;;;;;;;;;;5047252;28;20471;-56
2021/11/18 01:13:29;;;;;;;3.92;1.10;;;;;;;;;;5046016;28;20170;-53
2021/11/18 01:16:03;;;;;;;5.53;0.98;;;;;;;;;;5046192;28;20061;-57
2021/11/18 01:18:30;;;;;;;7.38;0.80;;;;;;;;;;4997284;28;20048;-54
2021/11/18 01:20:57;;;;;;;3.05;0.93;;;;;;;;;;5019846;28;20038;-56
2021/11/18 01:23:24;;;;;;;2.00;0.77;;;;;;;;;;5035186;28;20037;-53
2021/11/18 01:25:50;;;;;;;2.90;1.00;;;;;;;;;;5018510;28;20080;-55
2021/11/18 01:28:17;;;;;;;2.80;0.80;;;;;;;;;;5019672;28;20033;-58
2021/11/18 01:30:43;;;;;;;4.38;0.70;;;;;;;;;;5019014;28;20569;-55
2021/11/18 01:33:11;;;;;;;3.83;1.23;;;;;;;;;;5019721;28;20041;-56
2021/11/18 01:35:37;;;;;;;4.15;0.80;;;;;;;;;;5019392;28;20121;-56
2021/11/18 01:38:03;;;;;;;4.43;0.82;;;;;;;;;;5021658;28;20039;-54
2021/11/18 01:40:32;;;;;;;2.28;0.70;;;;;;;;;;5021833;28;20029;-56
2021/11/18 01:42:58;;;;;;;4.38;0.98;;;;;;;;;;5024297;28;20084;-54
2021/11/18 01:45:25;;;;;;;2.28;0.70;;;;;;;;;;5022229;28;20053;-56
2021/11/18 01:47:51;;;;;;;3.85;0.80;;;;;;;;;;5022538;28;20433;-54
2021/11/18 01:50:19;;;;;;;8.45;1.10;;;;;;;;;;5025985;28;20033;-56
2021/11/18 01:52:46;;;;;;;5.80;1.13;;;;;;;;;;5051283;28;20045;-52
2021/11/18 01:55:12;;;;;;;3.00;0.85;;;;;;;;;;5052805;28;20033;-55
2021/11/18 01:57:38;;;;;;;6.40;1.20;;;;;;;;;;5049986;28;20037;-56
2021/11/18 02:00:09;;;;;;;5.63;1.13;;;;;;;;;;5050667;28;20045;-53
2021/11/18 02:02:35;;;;;;;9.90;1.25;;;;;;;;;;5048776;28;20059;-56
2021/11/18 02:05:10;;;;;;;3.45;1.10;;;;;;;;;;5050342;28;20063;-57
2021/11/18 02:07:40;;;;;;;3.75;0.90;;;;;;;;;;5049510;28;20480;-56
2021/11/18 02:10:06;;;;;;;3.75;1.10;;;;;;;;;;5051143;28;20041;-55
2021/11/18 02:12:33;;;;;;;3.38;1.00;;;;;;;;;;5049883;28;20036;-56
2021/11/18 02:14:59;;;;;;;4.10;1.17;;;;;;;;;;5048038;28;20117;-55
2021/11/18 02:17:27;;;;;;;4.57;1.13;;;;;;;;;;5048696;28;20127;-57
2021/11/18 02:20:00;;;;;;;3.78;1.10;;;;;;;;;;5044094;28;20505;-58
2021/11/18 02:22:27;;;;;;;5.45;1.17;;;;;;;;;;5026398;28;20049;-56
2021/11/18 02:24:55;;;;;;;3.22;1.00;;;;;;;;;;5029398;28;20671;-55
2021/11/18 02:27:23;;;;;;;11.30;1.27;;;;;;;;;;5029318;28;20045;-56
2021/11/18 02:29:50;;;;;;;4.95;0.90;;;;;;;;;;5028380;28;20033;-57
2021/11/18 02:32:18;;;;;;;5.32;0.90;;;;;;;;;;5028305;28;20076;-57
2021/11/18 02:34:47;;;;;;;4.25;1.00;;;;;;;;;;5034319;28;20069;-56
2021/11/18 02:37:14;;;;;;;3.70;1.33;;;;;;;;;;5026902;28;20525;-54
2021/11/18 02:39:40;;;;;;;3.20;1.10;;;;;;;;;;5021078;28;20048;-56
2021/11/18 02:42:07;;;;;;;5.80;1.05;;;;;;;;;;5022938;28;20049;-57
2021/11/18 02:44:33;;;;;;;7.38;1.42;;;;;;;;;;5020452;28;20041;-54
2021/11/18 02:46:59;;;;;;;5.72;1.40;;;;;;;;;;5004006;28;20060;-52
2021/11/18 02:49:25;;;;;;;3.13;1.08;;;;;;;;;;5020628;28;20052;-56
2021/11/18 02:51:51;;;;;;;7.90;2.03;;;;;;;;;;5022327;28;20033;-54
2021/11/18 02:54:17;;;;;;;3.83;1.33;;;;;;;;;;5002699;28;20059;-57
2021/11/18 02:56:43;;;;;;;4.95;1.33;;;;;;;;;;5048978;28;20040;-55
2021/11/18 02:59:09;;;;;;;3.00;1.00;;;;;;;;;;5047893;28;20041;-53
2021/11/18 03:01:37;;;;;;;4.97;1.63;;;;;;;;;;5046655;28;20040;-55
2021/11/18 03:04:03;;;;;;;3.70;1.30;;;;;;;;;;5047123;28;20025;-58
2021/11/18 03:06:29;;;;;;;8.07;1.55;;;;;;;;;;5046068;28;20049;-56
2021/11/18 03:08:55;;;;;;;7.07;1.23;;;;;;;;;;5048441;28;20117;-56
2021/11/18 03:11:22;;;;;;;4.00;1.30;;;;;;;;;;5047624;28;20041;-55
2021/11/18 03:13:49;;;;;;;2.95;1.10;;;;;;;;;;5046972;28;20044;-54
2021/11/18 03:16:15;;;;;;;5.07;1.02;;;;;;;;;;5046606;28;20048;-56
2021/11/18 03:18:41;;;;;;;4.45;1.38;;;;;;;;;;5047277;28;20041;-53
2021/11/18 03:21:09;;;;;;;6.18;1.42;;;;;;;;;;5047342;28;20087;-56
2021/11/18 03:23:36;;;;;;;4.35;1.13;;;;;;;;;;5046193;28;20067;-56
2021/11/18 03:26:02;;;;;;;3.53;1.10;;;;;;;;;;5045873;28;20053;-55
2021/11/18 03:28:29;;;;;;;3.40;1.13;;;;;;;;;;5046202;28;20413;-56
2021/11/18 03:30:55;;;;;;;2.13;0.93;;;;;;;;;;5029127;28;20075;-56
2021/11/18 03:33:28;;;;;;;7.35;1.27;;;;;;;;;;5046137;28;20044;-57
2021/11/18 03:35:55;;;;;;;5.18;1.65;;;;;;;;;;5049591;28;20044;-55
2021/11/18 03:38:22;;;;;;;4.82;1.45;;;;;;;;;;5047490;28;20149;-55
2021/11/18 03:40:51;;;;;;;4.47;1.45;;;;;;;;;;5046687;28;20041;-56
2021/11/18 03:43:21;;;;;;;6.00;1.73;;;;;;;;;;5045940;28;20102;-57
2021/11/18 03:45:47;;;;;;;4.93;1.40;;;;;;;;;;5021817;28;20544;-56
2021/11/18 03:48:16;;;;;;;4.82;1.20;;;;;;;;;;5020645;28;20061;-56
2021/11/18 03:50:42;;;;;;;5.97;1.55;;;;;;;;;;5019170;28;20500;-56
2021/11/18 03:53:08;;;;;;;6.75;1.40;;;;;;;;;;5020925;28;20127;-55
2021/11/18 03:55:34;;;;;;;8.45;1.90;;;;;;;;;;5018865;28;20049;-56
2021/11/18 03:58:00;;;;;;;8.80;1.70;;;;;;;;;;5020255;28;20041;-55
2021/11/18 04:00:28;;;;;;;7.10;2.08;;;;;;;;;;5019010;28;20037;-54
2021/11/18 04:02:54;;;;;;;6.85;1.70;;;;;;;;;;5036429;28;20107;-56
2021/11/18 04:05:20;;;;;;;11.93;1.63;;;;;;;;;;5044285;28;20052;-52
2021/11/18 04:07:46;;;;;;;6.07;1.58;;;;;;;;;;5046652;28;20061;-55
2021/11/18 04:10:16;;;;;;;4.85;1.70;;;;;;;;;;5046879;28;20128;-55
2021/11/18 04:12:42;;;;;;;6.30;1.45;;;;;;;;;;5042794;28;20045;-57
2021/11/18 04:15:08;;;;;;;10.25;1.67;;;;;;;;;;5046487;28;20100;-57
2021/11/18 04:17:35;;;;;;;3.67;1.20;;;;;;;;;;5040932;28;20048;-55
2021/11/18 04:20:01;;;;;;;9.35;2.00;;;;;;;;;;5023344;28;20102;-57
2021/11/18 04:22:27;;;;;;;6.22;2.00;;;;;;;;;;5008401;28;20037;-57
2021/11/18 04:24:52;;;;;;;6.82;1.63;;;;;;;;;;5040190;28;20045;-56
2021/11/18 04:27:18;;;;;;;5.63;1.85;;;;;;;;;;5025531;28;20840;-57
2021/11/18 04:29:44;;;;;;;5.07;1.50;;;;;;;;;;5033898;28;20041;-56
2021/11/18 04:32:12;;;;;;;4.18;1.58;;;;;;;;;;5034890;28;20045;-56
2021/11/18 04:34:38;;;;;;;5.57;2.05;;;;;;;;;;5025008;28;20142;-54
2021/11/18 04:37:05;;;;;;;8.77;2.50;;;;;;;;;;5025962;28;20531;-56
2021/11/18 04:39:31;;;;;;;7.82;2.67;;;;;;;;;;5027052;28;20046;-57
2021/11/18 04:41:57;;;;;;;5.30;1.70;;;;;;;;;;5026857;28;20152;-56
2021/11/18 04:44:23;;;;;;;4.57;1.70;;;;;;;;;;5025449;28;20041;-53
2021/11/18 04:46:49;;;;;;;4.97;1.67;;;;;;;;;;5025432;28;20123;-56
2021/11/18 04:49:16;;;;;;;5.57;2.13;;;;;;;;;;5026955;28;20037;-55
2021/11/18 04:51:42;;;;;;;14.15;2.08;;;;;;;;;;5026305;28;20771;-56
2021/11/18 04:54:08;;;;;;;14.57;2.28;;;;;;;;;;5025425;28;20083;-56
2021/11/18 04:56:35;;;;;;;6.43;2.45;;;;;;;;;;5024846;28;20044;-57
2021/11/18 04:59:02;;;;;;;5.63;2.25;;;;;;;;;;5033572;28;20190;-54
2021/11/18 05:01:28;;;;;;;8.15;2.25;;;;;;;;;;5033661;28;20695;-58
2021/11/18 05:03:54;;;;;;;6.97;2.53;;;;;;;;;;5018487;28;20365;-56
2021/11/18 05:06:21;;;;;;;7.82;2.35;;;;;;;;;;5018711;28;20053;-54
2021/11/18 05:08:47;;;;;;;6.65;2.33;;;;;;;;;;5020203;28;20041;-56
2021/11/18 05:11:13;;;;;;;8.65;1.85;;;;;;;;;;5018860;28;20042;-56
2021/11/18 05:13:39;;;;;;;6.90;2.97;;;;;;;;;;5019371;28;20045;-56
2021/11/18 05:16:06;;;;;;;6.30;2.13;;;;;;;;;;5021215;28;20038;-55
2021/11/18 05:18:32;;;;;;;13.65;2.50;;;;;;;;;;5020464;28;20240;-54
2021/11/18 05:20:58;;;;;;;13.43;3.15;;;;;;;;;;5024133;28;20076;-56
2021/11/18 05:23:25;;;;;;;11.40;2.63;;;;;;;;;;5022828;28;20038;-55
2021/11/18 05:25:52;;;;;;;6.50;2.42;;;;;;;;;;5022004;28;20102;-55
2021/11/18 05:28:17;;;;;;;8.07;2.60;;;;;;;;;;5022849;28;20124;-57
2021/11/18 05:30:44;;;;;;;9.10;3.05;;;;;;;;;;5031745;28;20062;-55
2021/11/18 05:33:11;;;;;;;7.03;2.78;;;;;;;;;;5039958;28;20039;-55
2021/11/18 05:35:38;;;;;;;7.22;2.83;;;;;;;;;;5029043;28;20080;-54
2021/11/18 05:38:05;;;;;;;6.88;3.15;;;;;;;;;;5029117;28;20045;-56
2021/11/18 05:40:31;;;;;;;12.77;3.10;;;;;;;;;;5029361;28;20338;-53
2021/11/18 05:42:57;;;;;;;4.80;2.33;;;;;;;;;;5035697;28;20067;-53
2021/11/18 05:45:25;;;;;;;5.68;2.13;;;;;;;;;;5027136;28;20045;-54
2021/11/18 05:47:51;;;;;;;5.50;2.55;;;;;;;;;;5022979;28;20041;-53
2021/11/18 05:50:17;;;;;;;5.93;1.70;;;;;;;;;;5023250;28;20041;-52
2021/11/18 05:52:44;;;;;;;4.60;1.58;;;;;;;;;;5047790;28;20126;-57
2021/11/18 05:55:11;;;;;;;6.00;1.98;;;;;;;;;;5047756;28;20041;-56
2021/11/18 05:57:37;;;;;;;5.22;1.88;;;;;;;;;;5048213;28;20135;-56
2021/11/18 06:00:05;;;;;;;7.50;1.92;;;;;;;;;;5049475;28;20090;-53
2021/11/18 06:02:30;;;;;;;5.60;1.70;;;;;;;;;;5047217;28;20029;-54
2021/11/18 06:04:56;;;;;;;7.00;1.70;;;;;;;;;;5048870;28;20568;-53
2021/11/18 06:07:22;;;;;;;6.25;1.67;;;;;;;;;;5047309;28;20214;-55
2021/11/18 06:09:53;;;;;;;3.20;1.48;;;;;;;;;;5038524;28;20045;-56
2021/11/18 06:12:19;;;;;;;6.15;1.90;;;;;;;;;;5036974;28;20033;-51
2021/11/18 06:14:45;;;;;;;10.05;1.67;;;;;;;;;;5022717;28;20029;-54
2021/11/18 06:17:11;;;;;;;4.20;1.70;;;;;;;;;;5022540;28;20040;-55
2021/11/18 06:19:37;;;;;;;5.10;1.92;;;;;;;;;;5022997;28;20139;-57
2021/11/18 06:22:03;;;;;;;5.85;1.73;;;;;;;;;;5022203;28;20041;-56
2021/11/18 06:24:29;;;;;;;13.70;2.15;;;;;;;;;;5020793;28;20036;-55
2021/11/18 06:26:58;;;;;;;9.52;1.98;;;;;;;;;;5019239;28;20115;-54
2021/11/18 06:29:24;;;;;;;5.72;2.13;;;;;;;;;;5021684;28;20034;-56
2021/11/18 06:31:51;;;;;;;8.30;2.10;;;;;;;;;;5021572;28;20130;-55
2021/11/18 06:34:18;;;;;;;6.50;2.10;;;;;;;;;;5022192;28;20049;-55
2021/11/18 06:36:44;;;;;;;8.35;1.75;;;;;;;;;;5030480;28;20040;-53
2021/11/18 06:39:11;;;;;;;9.75;1.85;;;;;;;;;;5048027;28;20037;-53
2021/11/18 06:41:37;;;;;;;7.75;2.00;;;;;;;;;;5049192;28;20584;-55
2021/11/18 06:44:03;;;;;;;6.10;2.38;;;;;;;;;;5047582;28;20056;-55
2021/11/18 06:46:31;;;;;;;5.03;1.70;;;;;;;;;;5046716;28;20064;-57
2021/11/18 06:48:57;;;;;;;9.68;2.38;;;;;;;;;;5047987;28;20073;-57
2021/11/18 06:51:23;;;;;;;11.13;2.42;;;;;;;;;;5047199;28;20087;-57
2021/11/18 06:53:50;;;;;;;6.07;2.33;;;;;;;;;;5044707;28;20041;-55
2021/11/18 06:56:17;;;;;;;9.88;2.75;;;;;;;;;;5047386;28;20154;-56
2021/11/18 06:58:43;;;;;;;8.65;3.15;;;;;;;;;;5048193;28;20589;-54
2021/11/18 07:01:09;;;;;;;6.72;2.40;;;;;;;;;;5048645;28;20040;-56
2021/11/18 07:03:39;;;;;;;6.70;2.55;;;;;;;;;;5049226;28;20041;-56
2021/11/18 07:06:09;;;;;;;6.80;2.50;;;;;;;;;;5048906;28;20476;-56
2021/11/18 07:08:35;;;;;;;7.88;3.05;;;;;;;;;;5043130;28;20037;-51
2021/11/18 07:11:01;;;;;;;6.05;2.33;;;;;;;;;;5031875;28;20135;-54
2021/11/18 07:13:28;;;;;;;7.05;2.30;;;;;;;;;;5024986;28;20034;-51
2021/11/18 07:15:54;;;;;;;7.63;2.33;;;;;;;;;;5026833;28;20037;-51
2021/11/18 07:18:21;;;;;;;4.88;2.10;;;;;;;;;;5025328;28;20119;-53
2021/11/18 07:20:48;;;;;;;8.15;2.90;;;;;;;;;;5024729;28;20048;-53
2021/11/18 07:23:14;;;;;;;13.80;2.38;;;;;;;;;;5022776;28;20044;-55
2021/11/18 07:25:40;;;;;;;4.80;1.85;;;;;;;;;;5023958;28;20054;-52
2021/11/18 07:28:07;;;;;;;5.00;1.77;;;;;;;;;;5024171;28;20137;-55
2021/11/18 07:30:33;;;;;;;6.65;1.63;;;;;;;;;;5022908;28;20095;-55
2021/11/18 07:32:59;;;;;;;9.88;2.65;;;;;;;;;;5021984;28;20048;-56
2021/11/18 07:35:28;;;;;;;5.95;1.92;;;;;;;;;;5019769;28;21015;-55
2021/11/18 07:37:55;;;;;;;3.78;1.60;;;;;;;;;;5019924;28;20033;-55
2021/11/18 07:40:21;;;;;;;9.77;2.13;;;;;;;;;;5020649;28;20048;-55
2021/11/18 07:42:48;;;;;;;3.80;1.63;;;;;;;;;;5021512;28;20474;-54
2021/11/18 07:45:15;;;;;;;10.35;2.17;;;;;;;;;;5021706;28;20124;-55
2021/11/18 07:47:41;;;;;;;6.97;1.85;;;;;;;;;;5021213;28;20076;-52
2021/11/18 07:50:07;;;;;;;3.83;1.60;;;;;;;;;;5023447;28;21203;-52
2021/11/18 07:52:34;;;;;;;7.30;2.20;;;;;;;;;;5021300;28;20124;-55
2021/11/18 07:55:00;;;;;;;7.75;1.85;;;;;;;;;;5035585;28;20048;-53
2021/11/18 07:57:26;;;;;;;4.53;1.85;;;;;;;;;;5020202;28;20033;-54
2021/11/18 07:59:52;;;;;;;5.78;1.80;;;;;;;;;;5021145;28;20049;-56
2021/11/18 08:02:18;;;;;;;9.35;2.38;;;;;;;;;;5018202;28;20045;-52
2021/11/18 08:04:43;;;;;;;6.43;1.90;;;;;;;;;;5020654;28;20084;-55
2021/11/18 08:07:09;;;;;;;4.78;1.77;;;;;;;;;;5022400;28;20164;-55
2021/11/18 08:09:35;;;;;;;5.70;2.20;;;;;;;;;;5021902;28;20033;-54
2021/11/18 08:12:04;;;;;;;7.35;2.60;;;;;;;;;;5022711;28;20041;-55
2021/11/18 08:14:30;;;;;;;6.45;2.35;;;;;;;;;;5021431;28;20090;-54
2021/11/18 08:16:57;;;;;;;6.82;2.45;;;;;;;;;;5022731;28;20044;-53
2021/11/18 08:19:23;;;;;;;8.05;2.00;;;;;;;;;;5020068;28;20038;-55
2021/11/18 08:21:50;;;;;;;6.28;2.00;;;;;;;;;;5023212;28;20037;-57
2021/11/18 08:24:17;;;;;;;6.30;2.08;;;;;;;;;;5020142;28;20528;-54
2021/11/18 09:01:39;;;;;;;3.88;1.30;;;;;;;;;;4537321;23;20803;-57
2021/11/18 09:04:08;;;;;;;4.65;1.38;;;;;;;;;;4983422;28;20487;-52
2021/11/18 09:06:34;;;;;;;4.10;1.48;;;;;;;;;;4960819;28;20049;-54
2021/11/18 09:09:00;;;;;;;3.97;1.30;;;;;;;;;;4981280;28;20039;-56
2021/11/18 09:11:27;;;;;;;5.55;1.30;;;;;;;;;;4984209;28;20034;-52
2021/11/18 09:13:53;;;;;;;4.65;1.25;;;;;;;;;;4985219;28;20398;-58
2021/11/18 09:16:20;;;;;;;3.28;1.15;;;;;;;;;;4986509;28;20031;-55
2021/11/18 09:18:46;;;;;;;3.17;1.20;;;;;;;;;;4989069;28;20371;-55
2021/11/18 09:21:17;;;;;;;2.75;1.10;;;;;;;;;;4989383;28;20042;-52
2021/11/18 09:23:45;;;;;;;3.90;1.52;;;;;;;;;;4988061;28;20046;-53
2021/11/18 09:26:12;;;;;;;2.80;1.17;;;;;;;;;;4989379;28;20050;-55
2021/11/18 09:28:39;;;;;;;2.70;1.10;;;;;;;;;;4988296;28;20037;-54
2021/11/18 09:31:06;;;;;;;4.43;1.50;;;;;;;;;;4990551;28;20157;-55
2021/11/18 09:33:32;;;;;;;2.10;0.90;;;;;;;;;;4989669;28;20034;-56
2021/11/18 09:35:59;;;;;;;3.22;1.00;;;;;;;;;;4989925;28;20046;-57
2021/11/18 09:38:27;;;;;;;2.97;1.20;;;;;;;;;;4987397;28;20043;-55
2021/11/18 09:40:53;;;;;;;3.33;0.90;;;;;;;;;;4988802;28;20126;-56
2021/11/18 09:43:37;;;;;;;3.95;1.23;;;;;;;;;;4988577;28;20153;-57
2021/11/18 09:46:12;;;;;;;3.58;1.20;;;;;;;;;;4959614;28;20568;-54
2021/11/18 09:48:50;;;;;;;2.95;0.95;;;;;;;;;;4990982;28;20048;-55
2021/11/18 09:51:19;;;;;;;2.97;1.13;;;;;;;;;;4991292;28;20034;-55
2021/11/18 09:54:04;;;;;;;2.88;1.13;;;;;;;;;;4990625;28;20034;-52
2021/11/18 09:56:29;;;;;;;4.78;1.25;;;;;;;;;;4988133;28;20628;-54
2021/11/18 09:59:02;;;;;;;2.47;0.88;;;;;;;;;;4989223;28;20133;-53
2021/11/18 10:01:34;;;;;;;5.10;1.07;;;;;;;;;;4990132;28;20544;-53
2021/11/18 10:04:18;;;;;;;3.85;1.38;;;;;;;;;;4985540;28;20396;-55
2021/11/18 10:06:45;;;;;;;2.90;1.10;;;;;;;;;;4983078;28;20050;-55
2021/11/18 10:09:29;;;;;;;3.45;1.30;;;;;;;;;;4982662;28;20101;-55
2021/11/18 10:12:01;;;;;;;3.13;1.02;;;;;;;;;;4982947;28;20058;-55
2021/11/18 10:14:35;;;;;;;5.13;1.48;;;;;;;;;;4983571;28;20099;-55
2021/11/18 10:17:07;;;;;;;2.65;1.00;;;;;;;;;;4985512;28;20038;-55
2021/11/18 10:19:35;;;;;;;3.47;1.20;;;;;;;;;;4982818;28;20079;-56
2021/11/18 10:22:00;;;;;;;3.85;1.38;;;;;;;;;;4984438;28;20605;-54
2021/11/18 10:24:30;;;;;;;2.40;0.82;;;;;;;;;;4984380;28;20130;-55
2021/11/18 10:27:18;;;;;;;5.03;1.20;;;;;;;;;;4985789;28;20092;-54
2021/11/18 10:30:02;;;;;;;5.10;1.30;;;;;;;;;;4984402;28;20126;-52
2021/11/18 10:32:31;;;;;;;2.95;1.10;;;;;;;;;;4986147;28;20052;-54
2021/11/18 10:35:00;;;;;;;3.67;1.20;;;;;;;;;;4984915;28;20723;-56
2021/11/18 10:37:30;;;;;;;3.83;0.93;;;;;;;;;;4984271;28;20037;-55
2021/11/18 10:40:06;;;;;;;2.60;0.95;;;;;;;;;;4983396;28;20045;-57
2021/11/18 10:42:40;;;;;;;2.50;0.80;;;;;;;;;;4981873;28;20049;-52
2021/11/18 10:45:09;;;;;;;6.57;0.73;;;;;;;;;;4981620;28;20042;-55
2021/11/18 10:47:54;;;;;;;8.55;1.00;;;;;;;;;;4984445;28;20430;-55
2021/11/18 10:50:52;;;;;;;3.15;0.93;;;;;;;;;;4982162;28;20046;-55
2021/11/18 10:53:26;;;;;;;2.20;0.70;;;;;;;;;;4934761;28;20480;-53
2021/11/18 10:56:01;;;;;;;3.33;1.05;;;;;;;;;;4984501;28;20092;-54
2021/11/18 10:58:27;;;;;;;4.72;0.73;;;;;;;;;;4974133;28;20042;-54
2021/11/18 11:00:55;;;;;;;4.45;1.02;;;;;;;;;;4986163;28;20034;-55
2021/11/18 11:03:24;;;;;;;4.00;0.88;;;;;;;;;;4983839;28;20046;-55
2021/11/18 11:06:06;;;;;;;3.92;1.08;;;;;;;;;;4983378;28;20050;-54
2021/11/18 11:08:32;;;;;;;4.53;0.98;;;;;;;;;;4981949;28;20042;-54
2021/11/18 11:11:21;;;;;;;4.22;1.10;;;;;;;;;;4983954;28;20443;-55
2021/11/18 11:14:05;;;;;;;2.55;0.98;;;;;;;;;;4971627;28;20038;-55
2021/11/18 11:16:31;;;;;;;5.78;1.02;;;;;;;;;;4984753;28;20130;-54
2021/11/18 11:19:07;;;;;;;2.85;1.00;;;;;;;;;;4986036;28;20174;-52
2021/11/18 11:21:51;;;;;;;4.32;0.90;;;;;;;;;;4982331;28;20046;-56
2021/11/18 11:24:38;;;;;;;2.20;0.80;;;;;;;;;;4983480;28;20041;-52
2021/11/18 11:27:23;;;;;;;4.85;0.90;;;;;;;;;;4983211;28;20144;-53
2021/11/18 11:29:51;;;;;;;2.40;0.90;;;;;;;;;;4981548;28;20046;-56
2021/11/18 11:32:38;;;;;;;7.93;1.10;;;;;;;;;;4981737;28;20048;-56
2021/11/18 11:35:03;;;;;;;3.70;1.00;;;;;;;;;;4980030;28;20050;-53
2021/11/18 11:37:49;;;;;;;2.33;0.80;;;;;;;;;;4981605;28;20045;-52
2021/11/18 11:40:34;;;;;;;2.10;0.88;;;;;;;;;;4981074;28;20437;-54
2021/11/18 11:43:02;;;;;;;3.00;0.80;;;;;;;;;;4977147;28;20038;-56
2021/11/18 11:45:34;;;;;;;7.18;1.10;;;;;;;;;;4981214;28;20105;-56
2021/11/18 11:48:00;;;;;;;5.47;0.80;;;;;;;;;;4982047;28;20089;-55
2021/11/18 11:51:04;;;;;;;3.00;0.90;;;;;;;;;;4979574;28;20129;-56
2021/11/18 11:53:37;;;;;;;1.88;0.70;;;;;;;;;;4979970;28;20419;-56
2021/11/18 11:56:06;;;;;;;4.45;1.08;;;;;;;;;;4981815;28;20670;-54
2021/11/18 11:58:35;;;;;;;2.67;0.80;;;;;;;;;;4978440;28;20105;-53
2021/11/18 12:01:19;;;;;;;2.38;0.70;;;;;;;;;;4981088;28;20457;-55
2021/11/18 12:03:52;;;;;;;2.13;0.65;;;;;;;;;;4980508;28;20068;-56
2021/11/18 12:06:24;;;;;;;2.13;0.82;;;;;;;;;;4981776;28;20196;-52
2021/11/18 12:08:56;;;;;;;1.92;0.80;;;;;;;;;;4979610;28;20034;-54
2021/11/18 12:11:37;;;;;;;2.40;0.80;;;;;;;;;;4980203;28;20034;-54
2021/11/18 12:14:21;;;;;;;4.05;0.90;;;;;;;;;;4979935;28;20072;-56
2021/11/18 12:16:50;;;;;;;3.45;1.00;;;;;;;;;;4982257;28;20038;-53
2021/11/18 12:19:22;;;;;;;2.15;0.85;;;;;;;;;;4968068;28;20161;-55
2021/11/18 12:21:49;;;;;;;2.95;1.00;;;;;;;;;;4978995;28;20097;-53
2021/11/18 12:24:17;;;;;;;3.35;1.02;;;;;;;;;;4980382;28;20054;-54
2021/11/18 12:27:01;;;;;;;2.17;0.80;;;;;;;;;;4978244;28;20070;-57
2021/11/18 12:29:39;;;;;;;2.22;0.80;;;;;;;;;;4977715;28;20051;-56
2021/11/18 12:32:08;;;;;;;2.83;0.88;;;;;;;;;;4983294;28;20144;-53
2021/11/18 12:34:50;;;;;;;4.00;0.73;;;;;;;;;;4977655;28;20031;-55
2021/11/18 12:37:28;;;;;;;2.03;0.77;;;;;;;;;;4982549;28;20054;-56
2021/11/18 12:39:57;;;;;;;2.22;0.70;;;;;;;;;;4979940;28;20519;-56
2021/11/18 12:42:32;;;;;;;3.05;0.70;;;;;;;;;;4980697;28;20548;-55
2021/11/18 12:45:03;;;;;;;2.80;0.68;;;;;;;;;;4963567;28;20164;-55
2021/11/18 12:47:40;;;;;;;2.08;0.80;;;;;;;;;;4980156;28;20050;-53
2021/11/18 12:50:25;;;;;;;2.45;0.80;;;;;;;;;;4980290;28;20496;-54
2021/11/18 12:53:09;;;;;;;2.25;0.77;;;;;;;;;;4981178;28;20100;-55
2021/11/18 12:55:38;;;;;;;5.25;0.93;;;;;;;;;;4978796;28;20071;-54
2021/11/18 12:58:22;;;;;;;3.28;0.80;;;;;;;;;;4982922;28;20157;-53
2021/11/18 13:00:49;;;;;;;4.78;0.90;;;;;;;;;;4978879;28;20049;-56
2021/11/18 13:03:35;;;;;;;2.30;0.80;;;;;;;;;;4982615;28;20132;-54
2021/11/18 13:06:02;;;;;;;2.72;0.77;;;;;;;;;;4979401;28;20132;-53
2021/11/18 13:08:35;;;;;;;4.28;0.82;;;;;;;;;;4980632;28;20031;-53
2021/11/18 13:11:19;;;;;;;2.40;0.70;;;;;;;;;;4979722;28;20042;-55
2021/11/18 13:13:45;;;;;;;3.45;0.90;;;;;;;;;;4979809;28;20137;-56
2021/11/18 13:16:29;;;;;;;4.38;1.13;;;;;;;;;;4982147;28;20048;-54
2021/11/18 13:19:13;;;;;;;2.67;0.80;;;;;;;;;;4980892;28;20426;-57
2021/11/18 13:21:45;;;;;;;2.95;0.90;;;;;;;;;;4980340;28;20129;-56
2021/11/18 13:24:11;;;;;;;3.50;0.82;;;;;;;;;;4979550;28;20367;-56
2021/11/18 13:26:45;;;;;;;3.85;0.82;;;;;;;;;;4978787;28;20135;-55
2021/11/18 13:29:13;;;;;;;4.32;1.00;;;;;;;;;;4980810;28;20038;-56
2021/11/18 13:31:49;;;;;;;12.45;1.10;;;;;;;;;;4980129;28;20031;-56
2021/11/18 13:34:30;;;;;;;2.35;0.73;;;;;;;;;;4979507;28;20058;-54
2021/11/18 13:37:06;;;;;;;2.20;0.80;;;;;;;;;;4980676;28;20600;-54
2021/11/18 13:39:40;;;;;;;2.88;1.00;;;;;;;;;;4984259;28;20490;-56
2021/11/18 13:42:21;;;;;;;2.90;0.98;;;;;;;;;;4983685;28;20038;-55
2021/11/18 13:44:52;;;;;;;3.40;1.13;;;;;;;;;;4982349;28;20043;-55
2021/11/18 13:47:26;;;;;;;7.30;1.20;;;;;;;;;;4983554;28;20619;-55
2021/11/18 13:49:53;;;;;;;5.28;0.80;;;;;;;;;;4983430;28;20399;-52
2021/11/18 13:52:34;;;;;;;3.38;0.93;;;;;;;;;;4980133;28;20038;-55
2021/11/18 13:55:09;;;;;;;3.92;1.30;;;;;;;;;;4984582;28;20061;-55
2021/11/18 13:57:43;;;;;;;2.90;1.10;;;;;;;;;;4982649;28;20128;-53
2021/11/18 14:00:14;;;;;;;3.50;1.13;;;;;;;;;;4983470;28;21042;-55
2021/11/18 14:02:47;;;;;;;6.78;1.70;;;;;;;;;;4982670;28;20088;-54
2021/11/18 14:05:23;;;;;;;3.05;1.08;;;;;;;;;;4983087;28;20109;-51
2021/11/18 14:07:51;;;;;;;3.22;1.10;;;;;;;;;;4983176;28;20052;-52
2021/11/18 14:10:22;;;;;;;3.50;1.25;;;;;;;;;;4984936;28;20114;-56
2021/11/18 14:12:53;;;;;;;2.88;1.00;;;;;;;;;;4981441;28;20450;-51
2021/11/18 14:15:23;;;;;;;4.65;1.05;;;;;;;;;;4982032;28;20048;-54
2021/11/18 14:17:58;;;;;;;2.13;0.80;;;;;;;;;;4985469;28;20077;-54
2021/11/18 14:20:29;;;;;;;4.63;1.05;;;;;;;;;;4981017;28;20064;-56
2021/11/18 14:23:09;;;;;;;2.47;1.08;;;;;;;;;;4983888;28;20478;-51
2021/11/18 14:25:40;;;;;;;4.22;1.00;;;;;;;;;;4965394;28;20030;-55
2021/11/18 14:28:08;;;;;;;5.03;1.05;;;;;;;;;;4981266;28;20129;-55
2021/11/18 14:30:37;;;;;;;2.30;0.80;;;;;;;;;;4982595;28;20050;-53
2021/11/18 14:33:06;;;;;;;5.00;1.35;;;;;;;;;;4963369;28;20084;-55
2021/11/18 14:35:48;;;;;;;2.95;0.90;;;;;;;;;;4981078;28;20510;-53
2021/11/18 14:38:17;;;;;;;3.13;1.05;;;;;;;;;;4982612;28;20414;-52
2021/11/18 14:40:55;;;;;;;2.60;0.90;;;;;;;;;;4982111;28;20043;-57
2021/11/18 14:43:27;;;;;;;3.20;1.08;;;;;;;;;;4974874;28;20026;-57
2021/11/18 14:46:17;;;;;;;8.82;1.30;;;;;;;;;;4981305;28;20134;-55
2021/11/18 14:48:45;;;;;;;4.40;1.23;;;;;;;;;;4981109;28;20153;-55
2021/11/18 14:51:22;;;;;;;4.22;1.05;;;;;;;;;;4966577;28;20035;-55
2021/11/18 14:53:54;;;;;;;4.05;1.25;;;;;;;;;;4980672;28;20975;-55
2021/11/18 14:56:20;;;;;;;2.60;0.80;;;;;;;;;;4980500;28;20046;-54
2021/11/18 14:58:47;;;;;;;9.65;1.38;;;;;;;;;;4981663;28;20052;-53
2021/11/18 15:01:20;;;;;;;3.53;0.98;;;;;;;;;;4983718;28;20144;-55
2021/11/18 15:03:58;;;;;;;2.13;0.80;;;;;;;;;;4982221;28;20054;-56
2021/11/18 15:06:28;;;;;;;8.52;1.05;;;;;;;;;;4983955;28;20054;-54
2021/11/18 15:08:55;;;;;;;4.43;1.00;;;;;;;;;;4985864;28;20046;-53
2021/11/18 15:11:22;;;;;;;2.55;0.90;;;;;;;;;;4985053;28;20070;-54
2021/11/18 15:13:48;;;;;;;2.00;0.70;;;;;;;;;;4982566;28;20404;-53
2021/11/18 15:16:14;;;;;;;1.98;0.70;;;;;;;;;;4982163;28;20041;-56
2021/11/18 15:18:40;;;;;;;1.63;0.60;;;;;;;;;;4981174;28;20068;-55
2021/11/18 15:21:06;;;;;;;2.00;0.63;;;;;;;;;;4984268;28;20038;-54
2021/11/18 15:23:32;;;;;;;1.85;0.50;;;;;;;;;;4981139;28;20038;-54
2021/11/18 15:25:58;;;;;;;5.80;0.75;;;;;;;;;;4981887;28;20081;-56
2021/11/18 15:28:24;;;;;;;1.88;0.63;;;;;;;;;;4981553;28;21016;-56
2021/11/18 15:30:55;;;;;;;1.50;0.60;;;;;;;;;;4984485;28;20045;-55